createdAt,value
2022-10-05T00:00:47.269Z,99.90
2022-10-05T00:03:14.502Z,99.90
2022-10-05T00:05:42.142Z,99.90
2022-10-05T00:08:15.802Z,99.90
2022-10-05T00:10:43.174Z,99.90
2022-10-05T00:13:17.534Z,99.90
2022-10-05T00:15:45.084Z,99.90
2022-10-05T00:18:16.243Z,99.90
2022-10-05T00:20:44.373Z,99.90
2022-10-05T00:23:19.329Z,99.90
2022-10-05T00:25:47.147Z,99.90
2022-10-05T00:28:26.572Z,99.90
2022-10-05T00:31:01.435Z,99.90
2022-10-05T00:33:28.812Z,99.90
2022-10-05T00:35:56.112Z,99.90
2022-10-05T00:38:23.571Z,99.90
2022-10-05T00:41:10.707Z,99.90
2022-10-05T00:43:55.327Z,99.90
2022-10-05T00:46:27.477Z,99.90
2022-10-05T00:49:21.956Z,99.90
2022-10-05T00:52:20.226Z,99.90
2022-10-05T00:54:59.932Z,99.90
2022-10-05T00:57:48.620Z,99.90
2022-10-05T01:00:20.095Z,99.90
2022-10-05T01:03:07.154Z,99.90
2022-10-05T01:05:35.263Z,99.90
2022-10-05T01:08:02.453Z,99.90
2022-10-05T01:10:38.090Z,99.90
2022-10-05T01:13:11.163Z,99.90
2022-10-05T01:15:59.359Z,99.90
2022-10-05T01:18:34.341Z,99.90
2022-10-05T01:21:23.817Z,99.90
2022-10-05T01:24:11.866Z,99.90
2022-10-05T01:27:04.733Z,99.90
2022-10-05T01:29:43.838Z,99.90
2022-10-05T01:32:18.810Z,99.90
2022-10-05T01:34:45.884Z,99.90
2022-10-05T01:37:22.492Z,99.90
2022-10-05T01:40:12.894Z,99.90
2022-10-05T01:43:03.656Z,99.90
2022-10-05T01:46:10.626Z,99.90
2022-10-05T01:49:17.522Z,99.90
2022-10-05T01:51:54.621Z,99.90
2022-10-05T01:54:37.303Z,99.90
2022-10-05T01:57:08.815Z,99.90
2022-10-05T01:59:50.295Z,99.90
2022-10-05T02:02:22.259Z,99.90
2022-10-05T02:05:06.677Z,99.90
2022-10-05T02:07:40.189Z,99.90
2022-10-05T02:10:18.201Z,99.90
2022-10-05T02:12:48.285Z,99.90
2022-10-05T02:15:20.917Z,99.90
2022-10-05T02:17:52.945Z,99.90
2022-10-05T02:20:25.798Z,99.90
2022-10-05T02:22:58.329Z,99.90
2022-10-05T02:25:33.747Z,99.90
2022-10-05T02:28:07.754Z,99.90
2022-10-05T02:30:43.278Z,99.90
2022-10-05T02:33:19.870Z,99.90
2022-10-05T02:35:47.324Z,99.90
2022-10-05T02:38:27.118Z,99.90
2022-10-05T02:41:14.277Z,99.90
2022-10-05T02:43:43.194Z,99.90
2022-10-05T02:46:35.353Z,99.90
2022-10-05T02:49:31.055Z,99.90
2022-10-05T02:52:06.763Z,99.90
2022-10-05T02:55:01.710Z,99.90
2022-10-05T02:57:38.757Z,99.90
2022-10-05T03:00:15.257Z,99.90
2022-10-05T03:02:52.026Z,99.90
2022-10-05T03:05:22.689Z,99.90
2022-10-05T03:07:54.118Z,99.90
2022-10-05T03:11:01.058Z,99.90
2022-10-05T03:13:38.257Z,99.90
2022-10-05T03:16:05.417Z,99.90
2022-10-05T03:18:59.313Z,99.90
2022-10-05T03:22:01.909Z,99.90
2022-10-05T03:24:35.498Z,99.90
2022-10-05T03:27:25.275Z,99.90
2022-10-05T03:30:12.647Z,99.90
2022-10-05T03:33:03.161Z,99.90
2022-10-05T03:35:53.222Z,99.90
2022-10-05T03:39:00.211Z,99.90
2022-10-05T03:41:50.555Z,99.90
2022-10-05T03:44:31.372Z,99.90
2022-10-05T03:47:01.222Z,99.90
2022-10-05T03:49:29.517Z,99.90
2022-10-05T03:52:06.079Z,99.90
2022-10-05T03:54:39.533Z,99.90
2022-10-05T03:57:13.537Z,99.90
2022-10-05T03:59:56.971Z,99.90
2022-10-05T04:02:26.839Z,99.90
2022-10-05T04:05:03.913Z,99.90
2022-10-05T04:07:36.312Z,99.90
2022-10-05T04:10:10.046Z,99.90
2022-10-05T04:12:42.580Z,99.90
2022-10-05T04:15:19.484Z,99.90
2022-10-05T04:17:52.471Z,99.90
2022-10-05T04:20:21.864Z,99.90
2022-10-05T04:22:54.217Z,99.90
2022-10-05T04:25:31.876Z,99.90
2022-10-05T04:28:29.593Z,99.90
2022-10-05T04:31:02.867Z,99.90
2022-10-05T04:33:31.706Z,99.90
2022-10-05T04:36:18.310Z,99.90
2022-10-05T04:38:46.474Z,99.90
2022-10-05T04:41:37.727Z,99.90
2022-10-05T04:44:13.361Z,99.90
2022-10-05T04:46:42.995Z,99.90
2022-10-05T04:49:29.977Z,99.90
2022-10-05T04:52:17.884Z,99.90
2022-10-05T04:55:13.921Z,99.90
2022-10-05T04:58:20.867Z,99.90
2022-10-05T05:01:11.964Z,99.90
2022-10-05T05:04:12.259Z,99.90
2022-10-05T05:06:42.319Z,99.90
2022-10-05T05:09:38.226Z,99.90
2022-10-05T05:12:12.305Z,99.90
2022-10-05T05:15:04.372Z,99.90
2022-10-05T05:17:32.597Z,99.90
2022-10-05T05:20:15.798Z,99.90
2022-10-05T05:22:47.859Z,99.90
2022-10-05T05:25:21.978Z,99.90
2022-10-05T05:27:56.844Z,99.90
2022-10-05T05:30:53.632Z,99.90
2022-10-05T05:33:23.382Z,99.90
2022-10-05T05:36:23.359Z,99.90
2022-10-05T05:39:04.002Z,99.90
2022-10-05T05:41:39.419Z,99.90
2022-10-05T05:44:48.659Z,99.90
2022-10-05T05:47:38.061Z,99.90
2022-10-05T05:50:07.992Z,99.90
2022-10-05T05:52:46.008Z,99.90
2022-10-05T05:55:29.948Z,99.90
2022-10-05T05:58:11.419Z,99.90
2022-10-05T06:00:48.787Z,99.90
2022-10-05T06:03:37.002Z,99.90
2022-10-05T06:06:10.035Z,99.90
2022-10-05T06:08:42.468Z,99.90
2022-10-05T06:11:35.550Z,99.90
2022-10-05T06:14:12.767Z,99.90
2022-10-05T06:16:55.143Z,99.90
2022-10-05T06:19:24.212Z,99.90
2022-10-05T06:22:07.801Z,99.90
2022-10-05T06:24:40.701Z,99.90
2022-10-05T06:27:34.911Z,99.90
2022-10-05T06:30:06.850Z,97.50
2022-10-05T06:32:37.056Z,93.90
2022-10-05T06:35:07.932Z,90.00
2022-10-05T06:37:38.946Z,87.10
2022-10-05T06:40:14.419Z,83.30
2022-10-05T06:43:01.667Z,80.70
2022-10-05T06:45:53.302Z,78.90
2022-10-05T06:48:31.097Z,81.00
2022-10-05T06:51:31.410Z,80.40
2022-10-05T06:54:44.052Z,78.50
2022-10-05T06:57:39.903Z,75.50
2022-10-05T07:00:28.978Z,77.10
2022-10-05T07:03:21.804Z,72.80
2022-10-05T07:06:05.885Z,70.60
2022-10-05T07:08:52.885Z,71.50
2022-10-05T07:11:58.443Z,71.40
2022-10-05T07:14:46.374Z,70.30
2022-10-05T07:17:42.662Z,68.60
2022-10-05T07:20:33.058Z,68.40
2022-10-05T07:23:10.125Z,68.60
2022-10-05T07:25:50.140Z,68.20
2022-10-05T07:28:38.145Z,68.00
2022-10-05T07:31:10.854Z,66.50
2022-10-05T07:33:39.048Z,65.50
2022-10-05T07:36:32.634Z,64.00
2022-10-05T07:39:11.750Z,63.40
2022-10-05T07:41:47.755Z,64.90
2022-10-05T07:44:36.703Z,65.00
2022-10-05T07:47:33.528Z,63.80
2022-10-05T07:50:08.640Z,64.10
2022-10-05T07:52:38.065Z,64.00
2022-10-05T07:55:20.609Z,64.20
2022-10-05T07:58:16.709Z,61.60
2022-10-05T08:01:24.247Z,61.30
2022-10-05T08:04:03.462Z,60.90
2022-10-05T08:06:42.443Z,59.50
2022-10-05T08:09:29.421Z,60.60
2022-10-05T08:12:01.124Z,59.40
2022-10-05T08:14:52.949Z,58.60
2022-10-05T08:17:30.151Z,59.30
2022-10-05T08:20:09.932Z,59.50
2022-10-05T08:22:46.066Z,57.90
2022-10-05T08:25:26.587Z,57.00
2022-10-05T08:28:10.720Z,59.20
2022-10-05T08:30:54.488Z,61.30
2022-10-05T08:33:23.493Z,62.20
2022-10-05T08:36:05.647Z,66.50
2022-10-05T08:38:33.812Z,67.70
2022-10-05T08:41:00.853Z,69.30
2022-10-05T08:43:35.129Z,72.10
2022-10-05T08:46:27.882Z,72.40
2022-10-05T08:49:22.487Z,74.60
2022-10-05T08:52:00.909Z,76.10
2022-10-05T08:54:30.144Z,76.60
2022-10-05T08:57:12.124Z,76.70
2022-10-05T08:59:56.071Z,76.70
2022-10-05T09:02:23.167Z,76.40
2022-10-05T09:05:13.565Z,77.70
2022-10-05T09:08:20.914Z,78.80
2022-10-05T09:10:58.293Z,80.90
2022-10-05T09:14:05.159Z,80.90
2022-10-05T09:16:50.719Z,78.30
2022-10-05T09:19:37.691Z,79.20
2022-10-05T09:22:30.399Z,77.50
2022-10-05T09:25:03.869Z,79.40
2022-10-05T09:27:37.997Z,77.60
2022-10-05T09:30:13.042Z,78.90
2022-10-05T09:32:41.247Z,78.60
2022-10-05T09:35:26.031Z,78.60
2022-10-05T09:38:16.081Z,79.30
2022-10-05T09:41:04.026Z,80.90
2022-10-05T09:43:40.285Z,79.40
2022-10-05T09:46:28.443Z,77.70
2022-10-05T09:49:35.365Z,79.00
2022-10-05T09:52:31.766Z,78.60
2022-10-05T09:55:25.800Z,79.20
2022-10-05T09:58:30.730Z,80.20
2022-10-05T10:01:08.890Z,80.00
2022-10-05T10:04:07.241Z,81.80
2022-10-05T10:07:05.047Z,79.90
2022-10-05T10:09:53.161Z,79.50
2022-10-05T10:12:47.713Z,80.00
2022-10-05T10:15:54.768Z,81.20
2022-10-05T10:18:39.870Z,81.70
2022-10-05T10:21:35.202Z,84.50
2022-10-05T10:24:21.621Z,82.70
2022-10-05T10:26:57.553Z,85.30
2022-10-05T10:29:46.054Z,84.00
2022-10-05T10:32:21.848Z,84.10
2022-10-05T10:35:09.276Z,84.10
2022-10-05T10:37:58.775Z,85.20
2022-10-05T10:40:49.455Z,83.70
2022-10-05T10:43:22.085Z,82.50
2022-10-05T10:45:53.894Z,81.90
2022-10-05T10:48:40.888Z,84.60
2022-10-05T10:51:29.398Z,82.80
2022-10-05T10:54:20.021Z,82.60
2022-10-05T10:57:04.510Z,83.80
2022-10-05T11:00:15.681Z,85.50
2022-10-05T11:02:47.403Z,82.90
2022-10-05T11:05:29.006Z,82.90
2022-10-05T11:08:31.697Z,82.50
2022-10-05T11:11:22.631Z,82.00
2022-10-05T11:14:02.908Z,80.20
2022-10-05T11:17:09.778Z,79.40
2022-10-05T11:19:40.763Z,80.90
2022-10-05T11:22:31.020Z,82.30
2022-10-05T11:24:58.175Z,82.10
2022-10-05T11:28:01.081Z,80.50
2022-10-05T11:30:51.530Z,81.60
2022-10-05T11:33:58.500Z,81.80
2022-10-05T11:37:01.491Z,83.00
2022-10-05T11:39:52.910Z,82.90
2022-10-05T11:42:31.683Z,83.30
2022-10-05T11:45:22.109Z,83.80
2022-10-05T11:48:07.374Z,84.00
2022-10-05T11:50:40.220Z,86.00
2022-10-05T11:53:22.549Z,83.70
2022-10-05T11:56:09.849Z,84.10
2022-10-05T11:58:54.348Z,82.90
2022-10-05T12:01:28.437Z,83.00
2022-10-05T12:04:14.036Z,83.50
2022-10-05T12:07:01.116Z,84.10
2022-10-05T12:09:30.319Z,83.90
2022-10-05T12:12:27.315Z,85.50
2022-10-05T12:15:06.360Z,84.20
2022-10-05T12:17:43.518Z,84.00
2022-10-05T12:20:34.962Z,84.90
2022-10-05T12:23:11.812Z,86.00
2022-10-05T12:25:48.347Z,86.50
2022-10-05T12:28:22.958Z,85.10
2022-10-05T12:31:07.628Z,87.00
2022-10-05T12:33:39.281Z,86.80
2022-10-05T12:36:15.212Z,87.70
2022-10-05T12:38:51.099Z,86.60
2022-10-05T12:41:22.813Z,86.40
2022-10-05T12:44:07.063Z,88.30
2022-10-05T12:46:42.632Z,88.00
2022-10-05T12:49:25.324Z,87.60
2022-10-05T12:51:58.791Z,88.30
2022-10-05T12:54:49.183Z,89.00
2022-10-05T12:57:32.281Z,89.10
2022-10-05T13:00:11.425Z,89.90
2022-10-05T13:02:51.190Z,88.60
2022-10-05T13:05:28.185Z,88.40
2022-10-05T13:08:17.848Z,88.70
2022-10-05T13:11:05.012Z,89.80
2022-10-05T13:13:41.116Z,89.60
2022-10-05T13:16:16.598Z,89.60
2022-10-05T13:18:49.898Z,90.00
2022-10-05T13:21:21.045Z,89.20
2022-10-05T13:24:09.871Z,90.80
2022-10-05T13:26:43.737Z,90.60
2022-10-05T13:29:24.163Z,90.60
2022-10-05T13:32:00.313Z,90.50
2022-10-05T13:34:37.249Z,91.20
2022-10-05T13:37:28.802Z,91.10
2022-10-05T13:40:01.479Z,91.60
2022-10-05T13:42:34.509Z,91.40
2022-10-05T13:45:04.834Z,91.60
2022-10-05T13:48:03.292Z,91.30
2022-10-05T13:50:34.799Z,91.80
2022-10-05T13:53:30.014Z,91.10
2022-10-05T13:56:21.624Z,91.50
2022-10-05T13:59:12.857Z,92.10
2022-10-05T14:01:52.757Z,92.10
2022-10-05T14:04:24.736Z,92.20
2022-10-05T14:06:53.326Z,92.20
2022-10-05T14:09:20.375Z,92.70
2022-10-05T14:11:51.275Z,92.80
2022-10-05T14:14:43.103Z,92.50
2022-10-05T14:17:17.050Z,92.60
2022-10-05T14:19:47.951Z,92.80
2022-10-05T14:22:22.893Z,93.10
2022-10-05T14:25:09.843Z,92.50
2022-10-05T14:27:49.241Z,93.10
2022-10-05T14:30:16.323Z,93.30
2022-10-05T14:32:51.625Z,93.60
2022-10-05T14:35:22.290Z,93.70
2022-10-05T14:38:00.255Z,93.80
2022-10-05T14:40:29.490Z,94.20
2022-10-05T14:43:00.742Z,94.20
2022-10-05T14:45:30.796Z,94.00
2022-10-05T14:48:01.847Z,94.20
2022-10-05T14:50:31.509Z,94.40
2022-10-05T14:53:17.430Z,94.50
2022-10-05T14:55:50.030Z,94.50
2022-10-05T14:58:55.787Z,94.90
2022-10-05T15:01:27.105Z,95.10
2022-10-05T15:03:59.764Z,95.50
2022-10-05T15:06:39.913Z,95.70
2022-10-05T15:09:33.957Z,95.80
2022-10-05T15:12:04.699Z,96.10
2022-10-05T15:14:43.187Z,95.70
2022-10-05T15:17:21.196Z,96.10
2022-10-05T15:20:24.615Z,96.50
2022-10-05T15:23:03.813Z,96.60
2022-10-05T15:25:55.417Z,96.50
2022-10-05T15:29:03.468Z,97.10
2022-10-05T15:31:48.835Z,97.30
2022-10-05T15:34:29.505Z,97.60
2022-10-05T15:37:23.639Z,98.10
2022-10-05T15:40:02.744Z,98.40
2022-10-05T15:42:38.872Z,98.80
2022-10-05T15:45:35.386Z,98.90
2022-10-05T15:48:08.132Z,99.00
2022-10-05T15:50:46.027Z,99.40
2022-10-05T15:53:52.968Z,99.90
2022-10-05T15:56:34.022Z,99.90
2022-10-05T15:59:16.879Z,99.90
2022-10-05T16:01:53.031Z,99.90
2022-10-05T16:04:30.183Z,99.90
2022-10-05T16:07:20.853Z,99.90
2022-10-05T16:10:05.678Z,99.90
2022-10-05T16:12:38.201Z,99.90
2022-10-05T16:15:27.642Z,99.90
2022-10-05T16:18:10.792Z,99.90
2022-10-05T16:20:51.138Z,99.90
2022-10-05T16:23:19.400Z,99.90
2022-10-05T16:25:59.822Z,99.90
2022-10-05T16:29:06.804Z,99.90
2022-10-05T16:31:44.243Z,99.90
2022-10-05T16:34:29.716Z,99.90
2022-10-05T16:37:09.441Z,99.90
2022-10-05T16:40:01.470Z,99.90
2022-10-05T16:42:49.764Z,99.90
2022-10-05T16:45:45.436Z,99.90
2022-10-05T16:48:18.116Z,99.90
2022-10-05T16:51:01.891Z,99.90
2022-10-05T16:53:35.732Z,99.90
2022-10-05T16:56:08.788Z,99.90
2022-10-05T16:58:43.313Z,99.90
2022-10-05T17:01:30.294Z,99.90
2022-10-05T17:04:33.843Z,99.90
2022-10-05T17:07:35.223Z,99.90
2022-10-05T17:10:22.152Z,99.90
2022-10-05T17:13:16.414Z,99.90
2022-10-05T17:16:22.176Z,99.90
2022-10-05T17:19:19.812Z,99.90
2022-10-05T17:22:00.642Z,99.90
2022-10-05T17:24:36.853Z,99.90
2022-10-05T17:27:25.257Z,99.90
2022-10-05T17:29:55.622Z,99.90
2022-10-05T17:32:23.169Z,99.90
2022-10-05T17:35:18.522Z,99.90
2022-10-05T17:38:17.423Z,99.90
2022-10-05T17:41:08.222Z,99.90
2022-10-05T17:43:35.949Z,99.90
2022-10-05T17:46:06.915Z,99.90
2022-10-05T17:49:02.489Z,99.90
2022-10-05T17:51:49.770Z,99.90
2022-10-05T17:54:41.564Z,99.90
2022-10-05T17:57:08.910Z,99.90
2022-10-05T17:59:49.711Z,99.90
2022-10-05T18:02:26.979Z,99.90
2022-10-05T18:05:15.275Z,99.90
2022-10-05T18:07:48.190Z,99.90
2022-10-05T18:10:28.926Z,99.90
2022-10-05T18:12:59.619Z,99.90
2022-10-05T18:15:29.405Z,99.90
2022-10-05T18:18:35.715Z,99.90
2022-10-05T18:21:11.629Z,99.90
2022-10-05T18:23:42.050Z,99.90
2022-10-05T18:26:45.104Z,99.90
2022-10-05T18:29:38.961Z,99.90
2022-10-05T18:32:27.099Z,99.90
2022-10-05T18:35:19.941Z,99.90
2022-10-05T18:38:07.030Z,99.90
2022-10-05T18:40:57.488Z,99.90
2022-10-05T18:43:51.501Z,99.90
2022-10-05T18:46:49.859Z,99.90
2022-10-05T18:49:52.960Z,99.90
2022-10-05T18:52:46.556Z,99.90
2022-10-05T18:55:20.719Z,99.90
2022-10-05T18:58:08.080Z,99.90
2022-10-05T19:01:03.439Z,99.90
2022-10-05T19:03:57.271Z,99.90
2022-10-05T19:06:32.186Z,99.90
2022-10-05T19:08:59.422Z,99.90
2022-10-05T19:11:28.445Z,99.90
2022-10-05T19:14:20.257Z,99.90
2022-10-05T19:17:19.288Z,99.90
2022-10-05T19:20:07.478Z,99.90
2022-10-05T19:22:54.893Z,99.90
2022-10-05T19:25:32.722Z,99.90
2022-10-05T19:28:21.337Z,99.90
2022-10-05T19:30:49.511Z,99.90
2022-10-05T19:33:32.427Z,99.90
2022-10-05T19:36:26.198Z,99.90
2022-10-05T19:39:19.706Z,99.90
2022-10-05T19:41:52.181Z,99.90
2022-10-05T19:44:45.436Z,99.90
2022-10-05T19:47:36.357Z,99.90
2022-10-05T19:50:27.606Z,99.90
2022-10-05T19:53:08.562Z,99.90
2022-10-05T19:55:41.657Z,99.90
2022-10-05T19:58:28.247Z,99.90
2022-10-05T20:00:59.135Z,99.90
2022-10-05T20:03:32.902Z,99.90
2022-10-05T20:06:01.963Z,99.90
2022-10-05T20:08:39.554Z,99.90
2022-10-05T20:11:09.428Z,99.90
2022-10-05T20:13:37.346Z,99.90
2022-10-05T20:16:37.490Z,99.90
2022-10-05T20:19:52.290Z,99.90
2022-10-05T20:22:34.297Z,99.90
2022-10-05T20:25:03.825Z,99.90
2022-10-05T20:27:47.995Z,99.90
2022-10-05T20:30:29.324Z,99.90
2022-10-05T20:32:59.748Z,99.90
2022-10-05T20:35:35.294Z,99.90
2022-10-05T20:38:10.144Z,99.90
2022-10-05T20:40:39.966Z,99.90
2022-10-05T20:43:09.606Z,99.90
2022-10-05T20:45:44.979Z,99.90
2022-10-05T20:48:17.077Z,99.90
2022-10-05T20:50:50.580Z,99.90
2022-10-05T20:53:24.151Z,99.90
2022-10-05T20:55:58.577Z,99.90
2022-10-05T20:58:27.539Z,99.90
2022-10-05T21:01:16.154Z,99.90
2022-10-05T21:03:43.267Z,99.90
2022-10-05T21:06:11.058Z,99.90
2022-10-05T21:08:44.166Z,99.90
2022-10-05T21:11:12.305Z,99.90
2022-10-05T21:13:47.097Z,99.90
2022-10-05T21:16:18.691Z,99.90
2022-10-05T21:18:48.834Z,99.90
2022-10-05T21:21:18.037Z,99.90
2022-10-05T21:23:48.714Z,99.90
2022-10-05T21:26:16.074Z,99.90
2022-10-05T21:28:46.132Z,99.90
2022-10-05T21:31:13.531Z,99.90
2022-10-05T21:33:40.618Z,99.90
2022-10-05T21:36:08.180Z,99.90
2022-10-05T21:38:35.302Z,99.90
2022-10-05T21:41:03.251Z,99.90
2022-10-05T21:43:30.640Z,99.90
2022-10-05T21:45:58.428Z,99.90
2022-10-05T21:48:27.102Z,99.90
2022-10-05T21:50:54.469Z,99.90
2022-10-05T21:53:26.040Z,99.90
2022-10-05T21:55:53.644Z,99.90
2022-10-05T21:58:22.553Z,99.90
2022-10-05T22:00:49.792Z,99.90
2022-10-05T22:03:16.863Z,99.90
2022-10-05T22:05:44.785Z,99.90
2022-10-05T22:08:33.184Z,99.90
2022-10-05T22:11:01.724Z,99.90
2022-10-05T22:13:43.189Z,99.90
2022-10-05T22:16:10.358Z,99.90
2022-10-05T22:18:37.865Z,99.90
2022-10-05T22:21:07.170Z,99.90
2022-10-05T22:23:35.839Z,99.90
2022-10-05T22:26:04.214Z,99.90
2022-10-05T22:28:33.008Z,99.90
2022-10-05T22:31:04.015Z,99.90
2022-10-05T22:33:31.642Z,99.90
2022-10-05T22:36:00.358Z,99.90
2022-10-05T22:38:30.458Z,99.90
2022-10-05T22:40:57.965Z,99.90
2022-10-05T22:43:27.049Z,99.90
2022-10-05T22:45:55.058Z,99.90
2022-10-05T22:48:22.501Z,99.90
2022-10-05T22:50:49.632Z,99.90
2022-10-05T22:53:17.133Z,99.90
2022-10-05T22:55:44.294Z,99.90
2022-10-05T22:58:11.441Z,99.90
2022-10-05T23:00:57.559Z,99.90
2022-10-05T23:03:25.423Z,99.90
2022-10-05T23:06:03.201Z,99.90
2022-10-05T23:08:32.162Z,99.90
2022-10-05T23:11:03.428Z,99.90
2022-10-05T23:13:31.223Z,99.90
2022-10-05T23:15:58.363Z,99.90
2022-10-05T23:18:26.168Z,99.90
2022-10-05T23:20:54.852Z,99.90
2022-10-05T23:23:23.415Z,99.90
2022-10-05T23:25:50.586Z,99.90
2022-10-05T23:28:17.766Z,99.90
2022-10-05T23:30:45.233Z,99.90
2022-10-05T23:33:12.435Z,99.90
2022-10-05T23:35:39.509Z,99.90
2022-10-05T23:38:06.717Z,99.90
2022-10-05T23:40:34.100Z,99.90
2022-10-05T23:43:01.177Z,99.90
2022-10-05T23:45:28.264Z,99.90
2022-10-05T23:47:55.331Z,99.90
2022-10-05T23:50:25.028Z,99.90
2022-10-05T23:52:52.111Z,99.90
2022-10-05T23:55:19.252Z,99.90
2022-10-05T23:57:46.395Z,99.90
